Terminal Aerodrome Forecast
Issued by NWS Sioux Falls, SD

Home | Current Version | Previous Version | Graphics & Text | Print | Product List | Glossary On
Versions: 1 2 3 4 5 6 7 8 9 10 11 12 13 14 15 16 17 18 19 20 21
000
FTUS43 KFSD 232341
TAFFSD
TAF
KFSD 232341Z 2400/2424 15010KT P6SM OVC200
     FM240800 14012KT P6SM SCT020 BKN100
     FM241300 13015G21KT P6SM SCT015 OVC080
      TEMPO 2414/2416 P6SM -RA OVC015
     FM241600 14013G19KT 2SM -RA BR OVC010 PROB30 2420/2422 1SM
      -SNRA OVC008
     FM242200 12010KT 5SM -RA OVC015=

USA.gov is the U.S. government's official web portal to all federal, state and local government web resources and services.